createdAt,value
2024-01-22T00:00:44.724Z,79.43
2024-01-22T00:01:44.680Z,79.63
2024-01-22T00:02:44.711Z,79.74
2024-01-22T00:03:44.674Z,79.74
2024-01-22T00:04:44.696Z,79.84
2024-01-22T00:05:44.752Z,79.94
2024-01-22T00:06:44.763Z,80.16
2024-01-22T00:07:44.621Z,80.30
2024-01-22T00:08:44.669Z,80.40
2024-01-22T00:09:44.690Z,80.61
2024-01-22T00:10:44.656Z,80.71
2024-01-22T00:11:44.643Z,80.71
2024-01-22T00:12:44.649Z,80.82
2024-01-22T00:13:44.630Z,80.82
2024-01-22T00:14:44.675Z,80.92
2024-01-22T00:15:44.538Z,80.92
2024-01-22T00:16:44.521Z,80.92
2024-01-22T00:17:44.599Z,80.92
2024-01-22T00:18:44.642Z,80.92
2024-01-22T00:19:44.565Z,80.92
2024-01-22T00:20:44.501Z,81.02
2024-01-22T00:21:44.467Z,81.13
2024-01-22T00:22:44.533Z,81.13
2024-01-22T00:23:44.487Z,81.23
2024-01-22T00:24:44.451Z,81.23
2024-01-22T00:25:44.424Z,81.23
2024-01-22T00:26:44.469Z,81.23
2024-01-22T00:27:44.398Z,81.23
2024-01-22T00:28:44.396Z,81.45
2024-01-22T00:29:44.421Z,81.59
2024-01-22T00:30:44.380Z,81.79
2024-01-22T00:31:44.407Z,81.79
2024-01-22T00:32:44.415Z,81.86
2024-01-22T00:33:44.598Z,81.96
2024-01-22T00:34:44.409Z,81.96
2024-01-22T00:35:44.331Z,81.86
2024-01-22T00:36:44.315Z,82.07
2024-01-22T00:37:44.318Z,82.28
2024-01-22T00:38:44.364Z,82.28
2024-01-22T00:39:44.306Z,82.42
2024-01-22T00:40:44.270Z,82.38
2024-01-22T00:41:44.306Z,82.42
2024-01-22T00:42:44.266Z,82.38
2024-01-22T00:43:44.259Z,82.48
2024-01-22T00:44:44.315Z,82.59
2024-01-22T00:45:44.224Z,82.80
2024-01-22T00:46:44.210Z,82.84
2024-01-22T00:47:44.296Z,82.84
2024-01-22T00:48:44.283Z,82.70
2024-01-22T00:49:44.307Z,82.70
2024-01-22T00:50:44.201Z,82.59
2024-01-22T00:51:44.180Z,82.45
2024-01-22T00:52:44.167Z,82.28
2024-01-22T00:53:44.176Z,82.24
2024-01-22T00:54:44.139Z,82.24
2024-01-22T00:55:44.127Z,82.38
2024-01-22T00:56:44.152Z,82.34
2024-01-22T00:57:44.150Z,82.34
2024-01-22T00:58:44.103Z,82.03
2024-01-22T00:59:44.152Z,82.03
2024-01-22T01:00:44.140Z,81.82
2024-01-22T01:01:44.064Z,81.72
2024-01-22T01:02:44.100Z,81.82
2024-01-22T01:03:44.064Z,81.72
2024-01-22T01:04:44.078Z,81.82
2024-01-22T01:05:44.041Z,81.82
2024-01-22T01:06:44.051Z,81.72
2024-01-22T01:07:43.982Z,81.82
2024-01-22T01:08:44.041Z,81.93
2024-01-22T01:09:43.975Z,81.93
2024-01-22T01:10:43.988Z,81.68
2024-01-22T01:11:43.998Z,81.68
2024-01-22T01:12:43.944Z,81.47
2024-01-22T01:13:43.947Z,81.47
2024-01-22T01:14:44.009Z,81.37
2024-01-22T01:15:43.937Z,81.26
2024-01-22T01:16:43.910Z,81.26
2024-01-22T01:17:44.046Z,81.26
2024-01-22T01:18:44.010Z,80.85
2024-01-22T01:19:43.916Z,80.85
2024-01-22T01:20:43.929Z,80.74
2024-01-22T01:21:43.867Z,80.54
2024-01-22T01:22:43.881Z,80.54
2024-01-22T01:23:43.897Z,80.33
2024-01-22T01:24:43.950Z,80.33
2024-01-22T01:25:43.838Z,80.29
2024-01-22T01:26:43.918Z,80.22
2024-01-22T01:27:43.885Z,80.22
2024-01-22T01:28:43.781Z,80.08
2024-01-22T01:29:43.790Z,80.33
2024-01-22T01:30:43.770Z,80.22
2024-01-22T01:31:43.749Z,80.22
2024-01-22T01:32:43.907Z,80.22
2024-01-22T01:33:44.041Z,80.22
2024-01-22T01:34:43.754Z,80.22
2024-01-22T01:35:43.746Z,80.33
2024-01-22T01:36:43.691Z,80.19
2024-01-22T01:37:43.972Z,80.19
2024-01-22T01:38:43.721Z,80.19
2024-01-22T01:39:43.779Z,80.19
2024-01-22T01:40:43.663Z,80.40
2024-01-22T01:41:43.702Z,80.29
2024-01-22T01:42:43.665Z,80.29
2024-01-22T01:43:43.657Z,80.40
2024-01-22T01:44:43.721Z,80.40
2024-01-22T01:45:43.606Z,80.54
2024-01-22T01:46:43.599Z,80.43
2024-01-22T01:47:43.715Z,80.29
2024-01-22T01:48:43.770Z,80.29
2024-01-22T01:49:43.718Z,80.40
2024-01-22T01:50:43.613Z,80.40
2024-01-22T01:51:43.563Z,80.50
2024-01-22T01:52:43.616Z,80.60
2024-01-22T01:53:43.628Z,80.50
2024-01-22T01:54:43.630Z,80.91
2024-01-22T01:55:43.636Z,80.81
2024-01-22T01:56:43.624Z,80.60
2024-01-22T01:57:46.010Z,80.60
2024-01-22T01:58:43.494Z,80.60
2024-01-22T01:59:43.592Z,80.40
2024-01-22T02:00:43.626Z,80.40
2024-01-22T02:01:43.552Z,80.46
2024-01-22T02:02:43.499Z,80.36
2024-01-22T02:03:43.475Z,80.77
2024-01-22T02:04:43.458Z,80.91
2024-01-22T02:05:43.493Z,80.81
2024-01-22T02:06:43.408Z,80.67
2024-01-22T02:07:43.401Z,80.77
2024-01-22T02:08:43.470Z,80.57
2024-01-22T02:09:43.371Z,80.77
2024-01-22T02:10:43.383Z,80.57
2024-01-22T02:11:43.395Z,80.67
2024-01-22T02:12:43.384Z,80.67
2024-01-22T02:13:43.328Z,80.57
2024-01-22T02:14:43.405Z,80.46
2024-01-22T02:15:43.304Z,80.57
2024-01-22T02:16:43.304Z,80.67
2024-01-22T02:17:43.464Z,80.88
2024-01-22T02:18:43.468Z,80.98
2024-01-22T02:19:43.539Z,81.09
2024-01-22T02:20:43.285Z,80.98
2024-01-22T02:21:43.254Z,81.09
2024-01-22T02:22:43.234Z,81.19
2024-01-22T02:23:43.270Z,81.40
2024-01-22T02:24:43.209Z,81.50
2024-01-22T02:25:43.238Z,81.50
2024-01-22T02:26:43.224Z,81.50
2024-01-22T02:27:43.196Z,81.60
2024-01-22T02:28:43.186Z,81.40
2024-01-22T02:29:43.198Z,81.40
2024-01-22T02:30:43.163Z,81.50
2024-01-22T02:31:43.151Z,81.57
2024-01-22T02:32:43.210Z,81.57
2024-01-22T02:33:43.330Z,81.46
2024-01-22T02:34:43.206Z,81.57
2024-01-22T02:35:43.169Z,81.57
2024-01-22T02:36:43.081Z,81.67
2024-01-22T02:37:43.101Z,81.57
2024-01-22T02:38:43.088Z,81.57
2024-01-22T02:39:43.075Z,81.67
2024-01-22T02:40:43.059Z,81.67
2024-01-22T02:41:43.063Z,81.77
2024-01-22T02:42:43.090Z,81.77
2024-01-22T02:43:43.022Z,81.88
2024-01-22T02:44:43.062Z,81.74
2024-01-22T02:45:43.007Z,81.88
2024-01-22T02:46:42.997Z,81.84
2024-01-22T02:47:43.130Z,81.84
2024-01-22T02:48:43.099Z,81.95
2024-01-22T02:49:43.017Z,82.05
2024-01-22T02:50:42.996Z,81.95
2024-01-22T02:51:42.970Z,82.05
2024-01-22T02:52:42.914Z,82.15
2024-01-22T02:53:42.985Z,82.15
2024-01-22T02:54:42.930Z,82.05
2024-01-22T02:55:42.914Z,82.15
2024-01-22T02:56:42.951Z,82.05
2024-01-22T02:57:42.889Z,82.05
2024-01-22T02:58:42.890Z,81.95
2024-01-22T02:59:42.901Z,81.91
2024-01-22T03:00:42.936Z,81.81
2024-01-22T03:01:42.840Z,81.91
2024-01-22T03:02:42.902Z,81.91
2024-01-22T03:03:42.873Z,82.12
2024-01-22T03:04:42.819Z,82.01
2024-01-22T03:05:42.943Z,81.91
2024-01-22T03:06:42.882Z,81.91
2024-01-22T03:07:42.810Z,81.81
2024-01-22T03:08:42.817Z,81.81
2024-01-22T03:09:42.763Z,81.87
2024-01-22T03:10:42.751Z,81.91
2024-01-22T03:11:42.817Z,82.12
2024-01-22T03:12:42.750Z,82.12
2024-01-22T03:13:42.723Z,82.22
2024-01-22T03:14:42.741Z,82.22
2024-01-22T03:15:42.718Z,82.22
2024-01-22T03:16:42.709Z,82.43
2024-01-22T03:17:43.344Z,82.53
2024-01-22T03:18:42.777Z,82.53
2024-01-22T03:19:42.746Z,82.43
2024-01-22T03:20:42.713Z,82.43
2024-01-22T03:21:42.662Z,82.39
2024-01-22T03:22:42.679Z,82.39
2024-01-22T03:23:42.660Z,82.64
2024-01-22T03:24:42.635Z,82.64
2024-01-22T03:25:42.600Z,82.53
2024-01-22T03:26:42.653Z,82.74
2024-01-22T03:27:42.602Z,82.95
2024-01-22T03:28:42.581Z,83.05
2024-01-22T03:29:42.627Z,83.05
2024-01-22T03:30:42.541Z,83.16
2024-01-22T03:31:42.558Z,83.05
2024-01-22T03:32:42.700Z,83.05
2024-01-22T03:33:42.702Z,82.95
2024-01-22T03:34:42.513Z,83.05
2024-01-22T03:35:42.558Z,83.16
2024-01-22T03:36:42.521Z,83.01
2024-01-22T03:37:42.483Z,83.16
2024-01-22T03:38:42.486Z,83.26
2024-01-22T03:39:42.449Z,83.26
2024-01-22T03:40:42.455Z,83.33
2024-01-22T03:41:42.737Z,83.22
2024-01-22T03:42:42.442Z,83.22
2024-01-22T03:43:42.445Z,83.33
2024-01-22T03:44:42.470Z,83.22
2024-01-22T03:45:42.481Z,83.22
2024-01-22T03:46:42.390Z,83.12
2024-01-22T03:47:42.526Z,82.91
2024-01-22T03:48:42.550Z,82.81
2024-01-22T03:49:42.515Z,82.81
2024-01-22T03:50:42.481Z,82.70
2024-01-22T03:51:42.348Z,82.67
2024-01-22T03:52:42.321Z,82.77
2024-01-22T03:53:42.339Z,82.77
2024-01-22T03:54:42.328Z,82.77
2024-01-22T03:55:42.300Z,82.87
2024-01-22T03:56:42.311Z,82.87
2024-01-22T03:57:42.289Z,82.77
2024-01-22T03:58:42.260Z,82.81
2024-01-22T03:59:42.282Z,82.87
2024-01-22T04:00:42.264Z,82.98
2024-01-22T04:01:42.259Z,82.98
2024-01-22T04:02:42.268Z,82.98
2024-01-22T04:03:42.401Z,82.98
2024-01-22T04:04:42.218Z,82.98
2024-01-22T04:05:42.341Z,82.87
2024-01-22T04:06:42.308Z,82.77
2024-01-22T04:07:42.338Z,82.98
2024-01-22T04:08:42.203Z,82.98
2024-01-22T04:09:42.162Z,82.98
2024-01-22T04:10:42.156Z,83.08
2024-01-22T04:11:42.230Z,83.18
2024-01-22T04:12:42.132Z,83.08
2024-01-22T04:13:42.145Z,83.08
2024-01-22T04:14:42.170Z,83.29
2024-01-22T04:15:42.134Z,83.39
2024-01-22T04:16:42.106Z,84.12
2024-01-22T04:17:43.524Z,84.64
2024-01-22T04:18:42.319Z,85.36
2024-01-22T04:19:42.145Z,86.19
2024-01-22T04:20:42.096Z,86.61
2024-01-22T04:21:42.063Z,86.86
2024-01-22T04:22:42.045Z,87.38
2024-01-22T04:23:42.078Z,87.79
2024-01-22T04:24:42.032Z,88.00
2024-01-22T04:25:42.024Z,88.04
2024-01-22T04:26:42.103Z,88.15
2024-01-22T04:27:42.003Z,88.15
2024-01-22T04:28:41.966Z,88.04
2024-01-22T04:29:42.013Z,87.79
2024-01-22T04:30:45.258Z,87.69
2024-01-22T04:31:41.967Z,87.59
2024-01-22T04:32:42.125Z,87.69
2024-01-22T04:33:42.036Z,87.69
2024-01-22T04:34:41.905Z,87.48
2024-01-22T04:35:42.100Z,87.48
2024-01-22T04:36:41.907Z,87.07
2024-01-22T04:37:41.881Z,86.76
2024-01-22T04:38:41.913Z,86.65
2024-01-22T04:39:41.877Z,86.55
2024-01-22T04:40:41.877Z,86.44
2024-01-22T04:41:41.884Z,86.44
2024-01-22T04:42:41.838Z,86.44
2024-01-22T04:43:41.830Z,86.24
2024-01-22T04:44:41.834Z,86.44
2024-01-22T04:45:41.845Z,86.24
2024-01-22T04:46:41.795Z,86.03
2024-01-22T04:47:41.892Z,85.93
2024-01-22T04:48:41.930Z,85.57
2024-01-22T04:49:41.878Z,85.26
2024-01-22T04:50:41.887Z,85.16
2024-01-22T04:51:41.760Z,85.05
2024-01-22T04:52:41.728Z,84.95
2024-01-22T04:53:41.786Z,84.95
2024-01-22T04:54:41.724Z,84.91
2024-01-22T04:55:41.751Z,84.60
2024-01-22T04:56:41.709Z,84.39
2024-01-22T04:57:41.676Z,84.29
2024-01-22T04:58:41.677Z,84.19
2024-01-22T04:59:41.832Z,84.19
2024-01-22T05:00:41.684Z,84.08
2024-01-22T05:01:41.650Z,84.08
2024-01-22T05:02:41.723Z,83.98
2024-01-22T05:03:41.675Z,83.94
2024-01-22T05:04:41.627Z,84.19
2024-01-22T05:05:41.684Z,84.19
2024-01-22T05:06:41.670Z,84.15
2024-01-22T05:07:41.586Z,84.15
2024-01-22T05:08:41.633Z,84.15
2024-01-22T05:09:41.613Z,84.29
2024-01-22T05:10:41.545Z,84.29
2024-01-22T05:11:41.574Z,84.39
2024-01-22T05:12:41.528Z,84.70
2024-01-22T05:13:41.531Z,84.81
2024-01-22T05:14:41.607Z,84.91
2024-01-22T05:15:41.510Z,85.12
2024-01-22T05:16:41.488Z,85.26
2024-01-22T05:17:41.676Z,85.36
2024-01-22T05:18:41.629Z,85.43
2024-01-22T05:19:41.556Z,85.12
2024-01-22T05:20:41.525Z,85.02
2024-01-22T05:21:41.436Z,85.02
2024-01-22T05:22:41.459Z,84.91
2024-01-22T05:23:41.469Z,84.91
2024-01-22T05:24:41.403Z,84.81
2024-01-22T05:25:41.401Z,84.70
2024-01-22T05:26:41.429Z,84.67
2024-01-22T05:27:41.395Z,84.56
2024-01-22T05:28:41.367Z,84.46
2024-01-22T05:29:41.410Z,84.25
2024-01-22T05:30:41.357Z,84.15
2024-01-22T05:31:41.352Z,83.90
2024-01-22T05:32:41.426Z,83.90
2024-01-22T05:33:41.519Z,83.80
2024-01-22T05:34:41.379Z,83.84
2024-01-22T05:35:41.332Z,84.11
2024-01-22T05:36:41.308Z,84.25
2024-01-22T05:37:41.305Z,84.15
2024-01-22T05:38:41.338Z,84.15
2024-01-22T05:39:41.266Z,84.25
2024-01-22T05:40:41.272Z,84.11
2024-01-22T05:41:41.275Z,84.11
2024-01-22T05:42:43.683Z,84.00
2024-01-22T05:43:41.236Z,84.15
2024-01-22T05:44:41.233Z,84.31
2024-01-22T05:45:41.224Z,84.46
2024-01-22T05:46:41.199Z,84.46
2024-01-22T05:47:41.385Z,84.46
2024-01-22T05:48:41.320Z,84.52
2024-01-22T05:49:41.226Z,84.31
2024-01-22T05:50:41.169Z,84.21
2024-01-22T05:51:41.133Z,84.21
2024-01-22T05:52:41.121Z,84.21
2024-01-22T05:53:41.125Z,84.21
2024-01-22T05:54:41.107Z,84.11
2024-01-22T05:55:41.276Z,84.11
2024-01-22T05:56:41.113Z,84.11
2024-01-22T05:57:41.070Z,83.90
2024-01-22T05:58:41.059Z,83.86
2024-01-22T05:59:41.138Z,83.76
2024-01-22T06:00:41.138Z,83.80
2024-01-22T06:01:41.036Z,83.86
2024-01-22T06:02:41.042Z,83.86
2024-01-22T06:03:41.066Z,83.86
2024-01-22T06:04:41.032Z,83.97
2024-01-22T06:05:41.008Z,83.86
2024-01-22T06:06:41.084Z,83.65
2024-01-22T06:07:40.983Z,83.31
2024-01-22T06:08:41.022Z,83.10
2024-01-22T06:09:41.004Z,83.00
2024-01-22T06:10:40.975Z,82.89
2024-01-22T06:11:40.951Z,82.79
2024-01-22T06:12:40.919Z,82.75
2024-01-22T06:13:53.160Z,82.54
2024-01-22T06:14:40.943Z,82.23
2024-01-22T06:15:40.892Z,82.34
2024-01-22T06:16:40.867Z,82.23
2024-01-22T06:17:40.920Z,82.34
2024-01-22T06:18:41.014Z,82.34
2024-01-22T06:19:40.922Z,82.44
2024-01-22T06:20:40.881Z,82.44
2024-01-22T06:21:40.828Z,82.44
2024-01-22T06:22:40.811Z,82.65
2024-01-22T06:23:40.852Z,82.54
2024-01-22T06:24:40.814Z,82.44
2024-01-22T06:25:40.780Z,82.65
2024-01-22T06:26:40.798Z,82.50
2024-01-22T06:27:40.770Z,82.29
2024-01-22T06:28:40.760Z,82.19
2024-01-22T06:29:40.750Z,81.99
2024-01-22T06:30:40.725Z,81.88
2024-01-22T06:31:40.716Z,81.84
2024-01-22T06:32:40.859Z,81.64
2024-01-22T06:33:40.980Z,81.43
2024-01-22T06:34:40.928Z,81.12
2024-01-22T06:35:40.693Z,80.67
2024-01-22T06:36:40.656Z,80.46
2024-01-22T06:37:40.688Z,80.57
2024-01-22T06:38:40.670Z,80.71
2024-01-22T06:39:40.665Z,80.91
2024-01-22T06:40:40.612Z,81.02
2024-01-22T06:41:40.655Z,81.02
2024-01-22T06:42:40.636Z,81.02
2024-01-22T06:43:40.852Z,80.88
2024-01-22T06:44:40.595Z,80.67
2024-01-22T06:45:40.608Z,80.46
2024-01-22T06:46:40.581Z,80.22
2024-01-22T06:47:40.660Z,80.01
2024-01-22T06:48:40.830Z,79.80
2024-01-22T06:49:40.631Z,79.70
2024-01-22T06:50:40.570Z,79.70
2024-01-22T06:51:46.071Z,79.70
2024-01-22T06:52:40.485Z,79.70
2024-01-22T06:53:40.499Z,79.70
2024-01-22T06:54:40.472Z,79.49
2024-01-22T06:55:40.487Z,79.39
2024-01-22T06:56:40.499Z,79.29
2024-01-22T06:57:40.450Z,79.19
2024-01-22T06:58:40.460Z,79.19
2024-01-22T06:59:40.445Z,79.19
2024-01-22T07:00:40.497Z,79.08
2024-01-22T07:01:40.393Z,79.19
2024-01-22T07:02:40.580Z,79.19
2024-01-22T07:03:40.505Z,79.19
2024-01-22T07:04:40.400Z,79.19
2024-01-22T07:05:40.454Z,79.29
2024-01-22T07:06:40.502Z,79.29
2024-01-22T07:07:40.342Z,79.08
2024-01-22T07:08:40.379Z,79.08
2024-01-22T07:09:40.333Z,79.05
2024-01-22T07:10:40.322Z,78.98
2024-01-22T07:11:40.381Z,79.08
2024-01-22T07:12:40.280Z,78.84
2024-01-22T07:13:40.272Z,78.74
2024-01-22T07:14:40.318Z,78.74
2024-01-22T07:15:40.269Z,78.53
2024-01-22T07:16:40.241Z,78.42
2024-01-22T07:17:40.260Z,78.22
2024-01-22T07:18:40.320Z,78.11
2024-01-22T07:19:40.268Z,77.87
2024-01-22T07:20:40.293Z,77.77
2024-01-22T07:21:40.220Z,77.81
2024-01-22T07:22:41.749Z,77.77
2024-01-22T07:23:40.254Z,77.67
2024-01-22T07:24:40.181Z,77.56
2024-01-22T07:25:40.138Z,77.56
2024-01-22T07:26:40.143Z,77.46
2024-01-22T07:27:40.130Z,77.46
2024-01-22T07:28:40.139Z,77.36
2024-01-22T07:29:40.153Z,77.36
2024-01-22T07:30:40.093Z,77.36
2024-01-22T07:31:40.071Z,77.25
2024-01-22T07:32:40.203Z,77.25
2024-01-22T07:33:40.253Z,77.25
2024-01-22T07:34:40.156Z,77.36
2024-01-22T07:35:40.066Z,77.36
2024-01-22T07:36:40.052Z,77.25
2024-01-22T07:37:40.051Z,77.15
2024-01-22T07:38:40.633Z,76.94
2024-01-22T07:39:40.014Z,76.84
2024-01-22T07:40:39.998Z,76.73
2024-01-22T07:41:40.128Z,76.84
2024-01-22T07:42:40.083Z,76.60
2024-01-22T07:43:39.957Z,76.70
2024-01-22T07:44:40.057Z,76.60
2024-01-22T07:45:39.942Z,76.39
2024-01-22T07:46:39.951Z,76.29
2024-01-22T07:47:40.244Z,76.29
2024-01-22T07:48:40.020Z,76.29
2024-01-22T07:49:39.910Z,76.18
2024-01-22T07:50:39.918Z,76.18
2024-01-22T07:51:39.903Z,76.29
2024-01-22T07:52:40.056Z,76.18
2024-01-22T07:53:39.908Z,76.32
2024-01-22T07:54:39.860Z,76.50
2024-01-22T07:55:39.838Z,76.60
2024-01-22T07:56:39.884Z,76.39
2024-01-22T07:57:39.838Z,76.39
2024-01-22T07:58:39.823Z,76.50
2024-01-22T07:59:39.849Z,76.39
2024-01-22T08:00:39.823Z,76.39
2024-01-22T08:01:39.791Z,76.29
2024-01-22T08:02:39.837Z,76.29
2024-01-22T08:03:39.860Z,76.18
2024-01-22T08:04:39.781Z,76.08
2024-01-22T08:05:39.767Z,76.08
2024-01-22T08:06:39.834Z,76.18
2024-01-22T08:07:39.756Z,76.18
2024-01-22T08:08:39.769Z,76.18
2024-01-22T08:09:39.694Z,76.08
2024-01-22T08:10:39.726Z,75.84
2024-01-22T08:11:39.718Z,75.87
2024-01-22T08:12:39.683Z,75.98
2024-01-22T08:13:39.676Z,76.18
2024-01-22T08:14:39.660Z,76.50
2024-01-22T08:15:39.691Z,77.63
2024-01-22T08:16:39.623Z,78.35
2024-01-22T08:17:39.689Z,78.87
2024-01-22T08:18:39.799Z,79.59
2024-01-22T08:19:39.613Z,80.52
2024-01-22T08:20:39.647Z,81.07
2024-01-22T08:21:39.611Z,82.00
2024-01-22T08:22:39.589Z,82.52
2024-01-22T08:23:39.615Z,83.65
2024-01-22T08:24:39.557Z,84.11
2024-01-22T08:25:39.532Z,84.94
2024-01-22T08:26:39.578Z,85.66
2024-01-22T08:27:39.506Z,85.55
2024-01-22T08:28:39.529Z,86.73
2024-01-22T08:29:39.611Z,86.52
2024-01-22T08:30:39.482Z,87.35
2024-01-22T08:31:39.493Z,88.59
2024-01-22T08:32:39.572Z,87.97
2024-01-22T08:33:39.755Z,88.49
2024-01-22T08:34:40.351Z,89.22
2024-01-22T08:35:39.530Z,88.94
2024-01-22T08:36:39.442Z,89.87
2024-01-22T08:37:39.445Z,89.98
2024-01-22T08:38:39.438Z,89.56
2024-01-22T08:39:39.394Z,89.87
2024-01-22T08:40:39.402Z,90.50
2024-01-22T08:41:39.409Z,91.53
2024-01-22T08:42:39.385Z,91.57
2024-01-22T08:43:39.367Z,92.40
2024-01-22T08:44:39.364Z,92.71
2024-01-22T08:45:39.336Z,93.12
2024-01-22T08:46:39.332Z,93.43
2024-01-22T08:47:39.385Z,93.43
2024-01-22T08:48:39.436Z,94.06
2024-01-22T08:49:39.344Z,93.95
2024-01-22T08:50:39.281Z,94.57
2024-01-22T08:51:39.275Z,94.72
2024-01-22T08:52:39.272Z,95.24
2024-01-22T08:53:39.259Z,95.75
2024-01-22T08:54:39.236Z,96.06
2024-01-22T08:55:39.217Z,96.17
2024-01-22T08:56:39.266Z,96.58
2024-01-22T08:57:39.210Z,96.69
2024-01-22T08:58:39.197Z,97.00
2024-01-22T08:59:39.211Z,97.20
2024-01-22T09:00:39.215Z,97.83
2024-01-22T09:01:39.159Z,97.87
2024-01-22T09:02:39.174Z,98.13
2024-01-22T09:03:39.143Z,98.34
2024-01-22T09:04:39.146Z,98.44
2024-01-22T09:05:39.265Z,98.86
2024-01-22T09:06:39.222Z,98.96
2024-01-22T09:07:39.096Z,99.01
2024-01-22T09:08:39.194Z,99.32
2024-01-22T09:09:39.078Z,99.63
2024-01-22T09:10:39.081Z,99.73
2024-01-22T09:11:39.083Z,99.94
2024-01-22T09:12:39.076Z,99.99
2024-01-22T09:13:39.028Z,99.99
2024-01-22T09:14:39.078Z,99.99
2024-01-22T09:15:39.047Z,99.99
2024-01-22T09:16:39.007Z,99.99
2024-01-22T09:17:39.072Z,99.99
2024-01-22T09:18:39.163Z,99.99
2024-01-22T09:19:39.111Z,99.99
2024-01-22T09:20:39.023Z,99.99
2024-01-22T09:21:38.957Z,99.99
2024-01-22T09:22:38.964Z,99.99
2024-01-22T09:23:38.976Z,99.99
2024-01-22T09:24:38.929Z,99.99
2024-01-22T09:25:38.928Z,99.99
2024-01-22T09:26:38.920Z,99.99
2024-01-22T09:27:38.909Z,99.99
2024-01-22T09:28:38.879Z,99.99
2024-01-22T09:29:38.961Z,99.99
2024-01-22T09:30:38.890Z,99.99
2024-01-22T09:31:38.868Z,99.99
2024-01-22T09:32:38.906Z,99.99
2024-01-22T09:33:38.922Z,99.99
2024-01-22T09:34:38.971Z,99.99
2024-01-22T09:35:38.950Z,99.99
2024-01-22T09:36:38.814Z,99.99
2024-01-22T09:37:38.790Z,99.99
2024-01-22T09:38:38.881Z,99.99
2024-01-22T09:39:38.806Z,99.99
2024-01-22T09:40:38.771Z,99.99
2024-01-22T09:41:38.753Z,99.99
2024-01-22T09:42:38.734Z,99.99
2024-01-22T09:43:38.808Z,99.99
2024-01-22T09:44:38.736Z,99.99
2024-01-22T09:45:38.693Z,99.99
2024-01-22T09:46:38.696Z,99.99
2024-01-22T09:47:38.725Z,99.99
2024-01-22T09:48:38.800Z,99.99
2024-01-22T09:49:38.733Z,99.99
2024-01-22T09:50:38.691Z,99.99
2024-01-22T09:51:38.681Z,99.99
2024-01-22T09:52:38.679Z,99.99
2024-01-22T09:53:38.748Z,99.90
2024-01-22T09:54:38.673Z,99.95
2024-01-22T09:55:38.616Z,99.85
2024-01-22T09:56:38.590Z,99.74
2024-01-22T09:57:38.605Z,99.54
2024-01-22T09:58:38.629Z,99.33
2024-01-22T09:59:38.566Z,99.02
2024-01-22T10:00:38.757Z,99.02
2024-01-22T10:01:38.585Z,99.02
2024-01-22T10:02:38.664Z,98.87
2024-01-22T10:03:38.618Z,98.77
2024-01-22T10:04:38.542Z,98.35
2024-01-22T10:05:38.537Z,98.25
2024-01-22T10:06:38.665Z,98.05
2024-01-22T10:07:38.476Z,97.32
2024-01-22T10:08:38.477Z,97.28
2024-01-22T10:09:38.482Z,97.49
2024-01-22T10:10:38.455Z,96.97
2024-01-22T10:11:38.444Z,96.66
2024-01-22T10:12:38.467Z,96.86
2024-01-22T10:13:38.424Z,96.66
2024-01-22T10:14:38.416Z,96.76
2024-01-22T10:15:38.483Z,96.55
2024-01-22T10:16:38.476Z,96.45
2024-01-22T10:17:38.404Z,96.14
2024-01-22T10:18:38.570Z,96.09
2024-01-22T10:19:38.388Z,95.48
2024-01-22T10:20:38.360Z,95.06
2024-01-22T10:21:38.332Z,94.75
2024-01-22T10:22:38.367Z,94.71
2024-01-22T10:23:40.661Z,94.29
2024-01-22T10:24:38.305Z,94.09
2024-01-22T10:25:38.308Z,93.98
2024-01-22T10:26:38.294Z,93.68
2024-01-22T10:27:38.274Z,93.88
2024-01-22T10:28:38.274Z,93.37
2024-01-22T10:29:38.280Z,93.47
2024-01-22T10:30:38.313Z,93.05
2024-01-22T10:31:38.240Z,92.70
2024-01-22T10:32:38.243Z,92.50
2024-01-22T10:33:38.337Z,92.70
2024-01-22T10:34:38.240Z,92.70
2024-01-22T10:35:38.218Z,91.67
2024-01-22T10:36:38.228Z,91.67
2024-01-22T10:37:38.180Z,91.16
2024-01-22T10:38:38.176Z,90.19
2024-01-22T10:39:38.179Z,91.01
2024-01-22T10:40:38.147Z,91.22
2024-01-22T10:41:38.141Z,90.39
2024-01-22T10:42:38.132Z,90.08
2024-01-22T10:43:38.167Z,90.49
2024-01-22T10:44:38.107Z,90.70
2024-01-22T10:45:38.166Z,90.39
2024-01-22T10:46:38.070Z,90.39
2024-01-22T10:47:38.091Z,90.49
2024-01-22T10:48:43.704Z,90.19
2024-01-22T10:49:38.265Z,89.77
2024-01-22T10:50:38.101Z,89.42
2024-01-22T10:51:38.103Z,89.62
2024-01-22T10:52:38.055Z,89.83
2024-01-22T10:53:38.282Z,88.70
2024-01-22T10:54:38.013Z,88.70
2024-01-22T10:55:38.001Z,88.80
2024-01-22T10:56:37.967Z,88.29
2024-01-22T10:57:37.971Z,87.77
2024-01-22T10:58:37.970Z,87.83
2024-01-22T10:59:37.977Z,87.52
2024-01-22T11:00:37.965Z,87.32
2024-01-22T11:01:37.944Z,87.73
2024-01-22T11:02:37.920Z,87.11
2024-01-22T11:03:38.064Z,86.80
2024-01-22T11:04:37.954Z,86.45
2024-01-22T11:05:37.897Z,85.94
2024-01-22T11:06:37.905Z,86.24
2024-01-22T11:07:37.932Z,86.24
2024-01-22T11:08:37.872Z,86.45
2024-01-22T11:09:37.841Z,86.45
2024-01-22T11:10:37.827Z,86.45
2024-01-22T11:11:37.830Z,86.55
2024-01-22T11:12:37.810Z,86.35
2024-01-22T11:13:37.799Z,85.94
2024-01-22T11:14:37.788Z,85.83
2024-01-22T11:15:37.773Z,85.42
2024-01-22T11:16:37.785Z,85.52
2024-01-22T11:17:37.814Z,85.22
2024-01-22T11:18:37.829Z,84.87
2024-01-22T11:19:37.850Z,85.17
2024-01-22T11:20:37.734Z,85.07
2024-01-22T11:21:37.732Z,85.07
2024-01-22T11:22:37.705Z,85.28
2024-01-22T11:23:37.695Z,85.28
2024-01-22T11:24:37.676Z,84.66
2024-01-22T11:25:37.734Z,84.87
2024-01-22T11:26:37.660Z,84.45
2024-01-22T11:27:37.656Z,84.56
2024-01-22T11:28:37.680Z,84.35
2024-01-22T11:29:37.648Z,84.11
2024-01-22T11:30:37.640Z,83.90
2024-01-22T11:31:37.624Z,83.90
2024-01-22T11:32:37.623Z,83.49
2024-01-22T11:33:37.753Z,83.39
2024-01-22T11:34:37.658Z,83.59
2024-01-22T11:35:37.574Z,83.45
2024-01-22T11:36:37.646Z,83.45
2024-01-22T11:37:37.593Z,83.14
2024-01-22T11:38:37.579Z,83.35
2024-01-22T11:39:37.535Z,83.14
2024-01-22T11:40:37.544Z,83.45
2024-01-22T11:41:37.517Z,83.14
2024-01-22T11:42:37.533Z,82.83
2024-01-22T11:43:37.515Z,82.93
2024-01-22T11:44:37.477Z,82.83
2024-01-22T11:45:42.102Z,82.73
2024-01-22T11:46:37.460Z,82.73
2024-01-22T11:47:37.564Z,82.73
2024-01-22T11:48:37.531Z,82.90
2024-01-22T11:49:37.583Z,82.42
2024-01-22T11:50:37.407Z,82.18
2024-01-22T11:51:37.418Z,81.97
2024-01-22T11:52:37.398Z,81.87
2024-01-22T11:53:37.384Z,82.07
2024-01-22T11:54:37.366Z,81.87
2024-01-22T11:55:37.360Z,81.67
2024-01-22T11:56:37.335Z,82.07
2024-01-22T11:57:37.503Z,81.76
2024-01-22T11:58:37.336Z,81.87
2024-01-22T11:59:37.310Z,81.67
2024-01-22T12:00:37.382Z,82.07
2024-01-22T12:01:37.289Z,81.87
2024-01-22T12:02:37.304Z,81.67
2024-01-22T12:03:37.361Z,81.35
2024-01-22T12:04:37.345Z,81.97
2024-01-22T12:05:37.269Z,81.67
2024-01-22T12:06:37.309Z,81.73
2024-01-22T12:07:37.270Z,81.87
2024-01-22T12:08:37.226Z,81.67
2024-01-22T12:09:37.218Z,81.46
2024-01-22T12:10:37.214Z,81.56
2024-01-22T12:11:37.239Z,81.46
2024-01-22T12:12:37.202Z,81.67
2024-01-22T12:13:37.187Z,82.04
2024-01-22T12:14:37.144Z,81.52
2024-01-22T12:15:37.183Z,81.32
2024-01-22T12:16:37.148Z,81.52
2024-01-22T12:17:37.143Z,81.62
2024-01-22T12:18:37.171Z,81.52
2024-01-22T12:19:37.172Z,81.93
2024-01-22T12:20:37.101Z,81.83
2024-01-22T12:21:37.094Z,81.52
2024-01-22T12:22:37.070Z,81.62
2024-01-22T12:23:37.056Z,81.42
2024-01-22T12:24:37.040Z,81.32
2024-01-22T12:25:37.093Z,81.11
2024-01-22T12:26:37.038Z,81.21
2024-01-22T12:27:37.021Z,81.32
2024-01-22T12:28:37.018Z,81.62
2024-01-22T12:29:37.017Z,81.01
2024-01-22T12:30:37.016Z,81.21
2024-01-22T12:31:36.990Z,81.21
2024-01-22T12:32:37.028Z,81.21
2024-01-22T12:33:37.124Z,81.11
2024-01-22T12:34:37.014Z,81.32
2024-01-22T12:35:36.949Z,81.42
2024-01-22T12:36:37.011Z,81.62
2024-01-22T12:37:36.944Z,81.52
2024-01-22T12:38:36.912Z,81.32
2024-01-22T12:39:36.900Z,81.42
2024-01-22T12:40:36.893Z,81.21
2024-01-22T12:41:36.922Z,81.32
2024-01-22T12:42:36.902Z,81.01
2024-01-22T12:43:36.850Z,81.21
2024-01-22T12:44:36.854Z,81.21
2024-01-22T12:45:36.864Z,81.21
2024-01-22T12:46:36.850Z,81.52
2024-01-22T12:47:36.837Z,81.62
2024-01-22T12:48:37.015Z,82.04
2024-01-22T12:49:37.049Z,81.62
2024-01-22T12:50:36.786Z,81.93
2024-01-22T12:51:36.795Z,81.73
2024-01-22T12:52:36.754Z,81.52